sensor_id;sensor_type;location;lat;lon;timestamp;pressure;altitude;pressure_sealevel;temperature;humidity
56330;BME280;42236;48.058;10.632;2023-06-14T00:00:58;94261.81;;;12.99;43.84
56330;BME280;42236;48.058;10.632;2023-06-14T00:03:43;94255.16;;;12.93;44.15
56330;BME280;42236;48.058;10.632;2023-06-14T00:06:29;94253.38;;;12.77;44.64
56330;BME280;42236;48.058;10.632;2023-06-14T00:09:15;94264.69;;;12.60;44.96
56330;BME280;42236;48.058;10.632;2023-06-14T00:12:03;94259.91;;;12.50;45.30
56330;BME280;42236;48.058;10.632;2023-06-14T00:14:48;94264.47;;;12.46;45.50
56330;BME280;42236;48.058;10.632;2023-06-14T00:17:34;94264.78;;;12.41;45.62
56330;BME280;42236;48.058;10.632;2023-06-14T00:20:21;94260.41;;;12.32;46.00
56330;BME280;42236;48.058;10.632;2023-06-14T00:23:08;94257.91;;;12.24;46.19
56330;BME280;42236;48.058;10.632;2023-06-14T00:25:53;94256.59;;;12.14;46.58
56330;BME280;42236;48.058;10.632;2023-06-14T00:28:39;94256.81;;;12.05;47.05
56330;BME280;42236;48.058;10.632;2023-06-14T00:31:24;94255.19;;;12.01;47.31
56330;BME280;42236;48.058;10.632;2023-06-14T00:34:10;94250.63;;;12.05;47.12
56330;BME280;42236;48.058;10.632;2023-06-14T00:36:56;94253.75;;;12.07;47.06
56330;BME280;42236;48.058;10.632;2023-06-14T00:39:41;94258.44;;;12.10;46.96
56330;BME280;42236;48.058;10.632;2023-06-14T00:42:28;94256.09;;;12.08;47.28
56330;BME280;42236;48.058;10.632;2023-06-14T00:45:14;94254.41;;;12.00;47.64
56330;BME280;42236;48.058;10.632;2023-06-14T00:48:00;94252.00;;;11.95;47.71
56330;BME280;42236;48.058;10.632;2023-06-14T00:50:46;94249.94;;;11.88;47.78
56330;BME280;42236;48.058;10.632;2023-06-14T00:53:34;94250.16;;;11.80;48.00
56330;BME280;42236;48.058;10.632;2023-06-14T00:56:21;94251.22;;;11.75;48.23
56330;BME280;42236;48.058;10.632;2023-06-14T00:59:06;94254.13;;;11.66;48.46
56330;BME280;42236;48.058;10.632;2023-06-14T01:01:52;94248.00;;;11.50;49.12
56330;BME280;42236;48.058;10.632;2023-06-14T01:04:39;94250.94;;;11.41;49.03
56330;BME280;42236;48.058;10.632;2023-06-14T01:13:34;94248.56;;;11.20;50.30
56330;BME280;42236;48.058;10.632;2023-06-14T01:16:20;94255.16;;;11.23;49.77
56330;BME280;42236;48.058;10.632;2023-06-14T01:19:10;94250.81;;;11.18;52.03
56330;BME280;42236;48.058;10.632;2023-06-14T01:22:01;94243.28;;;11.08;51.31
56330;BME280;42236;48.058;10.632;2023-06-14T01:24:47;94247.75;;;11.00;50.80
56330;BME280;42236;48.058;10.632;2023-06-14T01:27:34;94242.91;;;10.90;51.29
56330;BME280;42236;48.058;10.632;2023-06-14T01:30:21;94246.66;;;10.85;51.76
56330;BME280;42236;48.058;10.632;2023-06-14T01:33:08;94247.28;;;10.79;52.01
56330;BME280;42236;48.058;10.632;2023-06-14T01:35:55;94244.84;;;10.74;52.40
56330;BME280;42236;48.058;10.632;2023-06-14T01:38:41;94238.59;;;10.70;52.56
56330;BME280;42236;48.058;10.632;2023-06-14T01:41:29;94238.16;;;10.67;52.78
56330;BME280;42236;48.058;10.632;2023-06-14T01:44:17;94238.59;;;10.70;52.75
56330;BME280;42236;48.058;10.632;2023-06-14T01:47:03;94236.66;;;10.70;52.58
56330;BME280;42236;48.058;10.632;2023-06-14T01:49:50;94236.25;;;10.68;52.87
56330;BME280;42236;48.058;10.632;2023-06-14T01:52:37;94235.00;;;10.65;53.08
56330;BME280;42236;48.058;10.632;2023-06-14T01:55:23;94236.16;;;10.64;52.97
56330;BME280;42236;48.058;10.632;2023-06-14T01:58:15;94236.94;;;10.65;53.67
56330;BME280;42236;48.058;10.632;2023-06-14T02:01:04;94243.97;;;10.70;52.43
56330;BME280;42236;48.058;10.632;2023-06-14T02:04:29;94242.00;;;10.66;57.10
56330;BME280;42236;48.058;10.632;2023-06-14T02:07:15;94236.88;;;10.61;52.91
56330;BME280;42236;48.058;10.632;2023-06-14T02:10:01;94230.16;;;10.55;53.40
56330;BME280;42236;48.058;10.632;2023-06-14T02:12:47;94231.31;;;10.54;53.24
56330;BME280;42236;48.058;10.632;2023-06-14T02:15:33;94232.84;;;10.55;53.24
56330;BME280;42236;48.058;10.632;2023-06-14T02:18:20;94231.38;;;10.58;53.12
56330;BME280;42236;48.058;10.632;2023-06-14T02:21:06;94235.56;;;10.55;53.07
56330;BME280;42236;48.058;10.632;2023-06-14T02:23:58;94233.56;;;10.52;53.40
56330;BME280;42236;48.058;10.632;2023-06-14T02:26:44;94227.28;;;10.48;53.53
56330;BME280;42236;48.058;10.632;2023-06-14T02:29:30;94231.13;;;10.47;53.45
56330;BME280;42236;48.058;10.632;2023-06-14T02:32:18;94236.44;;;10.43;55.39
56330;BME280;42236;48.058;10.632;2023-06-14T02:35:31;94235.19;;;10.25;61.05
56330;BME280;42236;48.058;10.632;2023-06-14T02:38:20;94238.06;;;10.16;56.72
56330;BME280;42236;48.058;10.632;2023-06-14T02:41:06;94241.97;;;10.19;55.17
56330;BME280;42236;48.058;10.632;2023-06-14T02:43:52;94241.97;;;10.19;55.29
56330;BME280;42236;48.058;10.632;2023-06-14T02:46:57;94244.16;;;10.13;57.29
56330;BME280;42236;48.058;10.632;2023-06-14T02:49:44;94243.28;;;10.09;56.07
56330;BME280;42236;48.058;10.632;2023-06-14T02:52:33;94241.97;;;10.03;57.23
56330;BME280;42236;48.058;10.632;2023-06-14T02:55:22;94245.09;;;10.05;57.47
56330;BME280;42236;48.058;10.632;2023-06-14T02:58:33;94240.94;;;10.08;60.49
56330;BME280;42236;48.058;10.632;2023-06-14T03:01:22;94241.72;;;10.08;57.21
56330;BME280;42236;48.058;10.632;2023-06-14T03:04:08;94243.19;;;10.06;56.90
56330;BME280;42236;48.058;10.632;2023-06-14T03:06:54;94250.72;;;10.00;56.86
56330;BME280;42236;48.058;10.632;2023-06-14T03:09:41;94244.50;;;9.96;57.11
56330;BME280;42236;48.058;10.632;2023-06-14T03:12:27;94241.69;;;9.92;57.46
56330;BME280;42236;48.058;10.632;2023-06-14T03:15:14;94240.78;;;9.88;57.89
56330;BME280;42236;48.058;10.632;2023-06-14T03:17:59;94238.72;;;9.81;58.96
56330;BME280;42236;48.058;10.632;2023-06-14T03:20:45;94246.38;;;9.79;58.56
56330;BME280;42236;48.058;10.632;2023-06-14T03:23:31;94254.00;;;9.77;58.94
56330;BME280;42236;48.058;10.632;2023-06-14T03:26:29;94247.06;;;9.76;63.79
56330;BME280;42236;48.058;10.632;2023-06-14T03:29:16;94247.72;;;9.73;60.29
56330;BME280;42236;48.058;10.632;2023-06-14T03:32:08;94255.72;;;9.70;62.44
56330;BME280;42236;48.058;10.632;2023-06-14T03:34:54;94249.13;;;9.67;60.53
56330;BME280;42236;48.058;10.632;2023-06-14T03:37:41;94248.22;;;9.63;60.72
56330;BME280;42236;48.058;10.632;2023-06-14T03:40:26;94252.72;;;9.59;61.00
56330;BME280;42236;48.058;10.632;2023-06-14T03:43:16;94246.94;;;9.57;60.91
56330;BME280;42236;48.058;10.632;2023-06-14T03:46:23;94261.94;;;9.58;65.58
56330;BME280;42236;48.058;10.632;2023-06-14T03:49:09;94260.81;;;9.59;61.25
56330;BME280;42236;48.058;10.632;2023-06-14T03:51:58;94270.34;;;9.56;61.15
56330;BME280;42236;48.058;10.632;2023-06-14T03:54:47;94267.34;;;9.58;61.41
56330;BME280;42236;48.058;10.632;2023-06-14T03:57:33;94268.09;;;9.58;60.90
56330;BME280;42236;48.058;10.632;2023-06-14T04:00:19;94277.53;;;9.65;60.94
56330;BME280;42236;48.058;10.632;2023-06-14T04:03:05;94272.59;;;9.67;60.63
56330;BME280;42236;48.058;10.632;2023-06-14T04:05:51;94278.50;;;9.72;60.68
56330;BME280;42236;48.058;10.632;2023-06-14T04:08:42;94281.28;;;9.76;60.63
56330;BME280;42236;48.058;10.632;2023-06-14T04:11:27;94276.53;;;9.85;60.38
56330;BME280;42236;48.058;10.632;2023-06-14T04:14:13;94282.28;;;9.99;60.23
56330;BME280;42236;48.058;10.632;2023-06-14T04:16:59;94283.16;;;10.32;59.54
56330;BME280;42236;48.058;10.632;2023-06-14T04:19:45;94289.56;;;10.75;58.93
56330;BME280;42236;48.058;10.632;2023-06-14T04:22:31;94293.56;;;11.32;57.35
56330;BME280;42236;48.058;10.632;2023-06-14T04:25:16;94291.88;;;11.82;55.91
56330;BME280;42236;48.058;10.632;2023-06-14T04:28:02;94293.84;;;12.24;55.07
56330;BME280;42236;48.058;10.632;2023-06-14T04:30:49;94292.31;;;12.69;54.09
56330;BME280;42236;48.058;10.632;2023-06-14T04:33:37;94302.22;;;13.11;53.13
56330;BME280;42236;48.058;10.632;2023-06-14T04:36:29;94299.59;;;13.41;52.52
56330;BME280;42236;48.058;10.632;2023-06-14T04:39:16;94301.56;;;13.75;51.56
56330;BME280;42236;48.058;10.632;2023-06-14T04:42:03;94306.97;;;14.05;50.81
56330;BME280;42236;48.058;10.632;2023-06-14T04:44:50;94303.72;;;14.29;50.49
56330;BME280;42236;48.058;10.632;2023-06-14T04:47:36;94310.50;;;14.46;50.02
56330;BME280;42236;48.058;10.632;2023-06-14T04:50:22;94315.44;;;14.75;49.52
56330;BME280;42236;48.058;10.632;2023-06-14T04:53:09;94312.13;;;14.96;48.95
56330;BME280;42236;48.058;10.632;2023-06-14T04:55:56;94321.22;;;15.18;48.62
56330;BME280;42236;48.058;10.632;2023-06-14T04:58:41;94330.31;;;15.40;48.16
56330;BME280;42236;48.058;10.632;2023-06-14T05:01:27;94331.22;;;15.62;47.61
56330;BME280;42236;48.058;10.632;2023-06-14T05:04:14;94330.16;;;15.77;47.37
56330;BME280;42236;48.058;10.632;2023-06-14T05:07:00;94327.94;;;16.04;46.54
56330;BME280;42236;48.058;10.632;2023-06-14T05:09:47;94322.63;;;16.36;45.86
56330;BME280;42236;48.058;10.632;2023-06-14T05:12:33;94327.75;;;16.70;45.38
56330;BME280;42236;48.058;10.632;2023-06-14T05:15:19;94327.41;;;17.04;45.04
56330;BME280;42236;48.058;10.632;2023-06-14T05:18:05;94328.97;;;17.23;44.45
56330;BME280;42236;48.058;10.632;2023-06-14T05:20:51;94328.91;;;17.44;43.88
56330;BME280;42236;48.058;10.632;2023-06-14T05:23:36;94322.66;;;17.69;43.82
56330;BME280;42236;48.058;10.632;2023-06-14T05:26:22;94321.47;;;17.88;43.23
56330;BME280;42236;48.058;10.632;2023-06-14T05:29:14;94335.50;;;17.83;43.75
56330;BME280;42236;48.058;10.632;2023-06-14T05:31:59;94327.66;;;18.03;43.15
56330;BME280;42236;48.058;10.632;2023-06-14T05:34:45;94330.34;;;18.13;43.15
56330;BME280;42236;48.058;10.632;2023-06-14T05:37:31;94332.63;;;18.26;42.64
56330;BME280;42236;48.058;10.632;2023-06-14T05:40:17;94328.66;;;18.38;42.43
56330;BME280;42236;48.058;10.632;2023-06-14T05:43:03;94338.78;;;18.44;42.52
56330;BME280;42236;48.058;10.632;2023-06-14T05:45:48;94335.25;;;18.51;41.79
56330;BME280;42236;48.058;10.632;2023-06-14T05:48:34;94333.25;;;18.55;41.30
56330;BME280;42236;48.058;10.632;2023-06-14T05:51:20;94345.03;;;18.45;41.52
56330;BME280;42236;48.058;10.632;2023-06-14T05:54:06;94343.47;;;18.40;41.45
56330;BME280;42236;48.058;10.632;2023-06-14T05:56:51;94352.00;;;18.53;42.00
56330;BME280;42236;48.058;10.632;2023-06-14T05:59:37;94345.38;;;18.54;41.78
56330;BME280;42236;48.058;10.632;2023-06-14T06:02:23;94346.44;;;18.67;41.84
56330;BME280;42236;48.058;10.632;2023-06-14T06:05:12;94349.56;;;18.69;41.50
56330;BME280;42236;48.058;10.632;2023-06-14T06:07:58;94353.34;;;18.93;42.10
56330;BME280;42236;48.058;10.632;2023-06-14T06:10:43;94349.38;;;19.05;42.09
56330;BME280;42236;48.058;10.632;2023-06-14T06:13:29;94353.53;;;19.24;41.58
56330;BME280;42236;48.058;10.632;2023-06-14T06:16:15;94346.84;;;19.29;41.55
56330;BME280;42236;48.058;10.632;2023-06-14T06:19:00;94358.97;;;19.28;41.84
56330;BME280;42236;48.058;10.632;2023-06-14T06:21:46;94366.63;;;19.47;41.85
56330;BME280;42236;48.058;10.632;2023-06-14T06:24:32;94351.78;;;19.48;42.04
56330;BME280;42236;48.058;10.632;2023-06-14T06:27:17;94364.19;;;19.56;42.26
56330;BME280;42236;48.058;10.632;2023-06-14T06:30:04;94359.75;;;19.73;41.43
56330;BME280;42236;48.058;10.632;2023-06-14T06:32:51;94368.47;;;20.02;40.64
56330;BME280;42236;48.058;10.632;2023-06-14T06:35:37;94364.56;;;20.03;40.56
56330;BME280;42236;48.058;10.632;2023-06-14T06:38:22;94364.28;;;19.91;39.91
56330;BME280;42236;48.058;10.632;2023-06-14T06:41:08;94364.41;;;19.80;39.70
56330;BME280;42236;48.058;10.632;2023-06-14T06:43:54;94367.38;;;19.51;39.91
56330;BME280;42236;48.058;10.632;2023-06-14T06:46:39;94366.81;;;19.26;39.83
56330;BME280;42236;48.058;10.632;2023-06-14T06:49:26;94379.25;;;18.67;41.29
56330;BME280;42236;48.058;10.632;2023-06-14T06:52:12;94376.28;;;18.37;41.21
56330;BME280;42236;48.058;10.632;2023-06-14T06:54:57;94375.53;;;18.25;41.70
56330;BME280;42236;48.058;10.632;2023-06-14T06:57:43;94372.44;;;18.23;41.74
56330;BME280;42236;48.058;10.632;2023-06-14T07:00:29;94374.78;;;18.21;42.26
56330;BME280;42236;48.058;10.632;2023-06-14T07:03:15;94380.22;;;18.21;42.38
56330;BME280;42236;48.058;10.632;2023-06-14T07:06:00;94388.44;;;18.18;42.28
56330;BME280;42236;48.058;10.632;2023-06-14T07:08:46;94382.59;;;18.12;42.04
56330;BME280;42236;48.058;10.632;2023-06-14T07:11:34;94383.44;;;17.87;42.53
56330;BME280;42236;48.058;10.632;2023-06-14T07:14:19;94391.97;;;18.11;42.13
56330;BME280;42236;48.058;10.632;2023-06-14T07:17:08;94385.69;;;18.25;42.15
56330;BME280;42236;48.058;10.632;2023-06-14T07:19:54;94384.06;;;18.42;42.14
56330;BME280;42236;48.058;10.632;2023-06-14T07:22:40;94387.22;;;18.37;42.31
56330;BME280;42236;48.058;10.632;2023-06-14T07:25:26;94397.72;;;18.38;41.97
56330;BME280;42236;48.058;10.632;2023-06-14T07:28:12;94396.44;;;18.64;41.51
56330;BME280;42236;48.058;10.632;2023-06-14T07:30:57;94401.59;;;18.48;41.75
56330;BME280;42236;48.058;10.632;2023-06-14T07:33:43;94400.44;;;18.49;41.65
56330;BME280;42236;48.058;10.632;2023-06-14T07:36:29;94402.78;;;18.43;42.00
56330;BME280;42236;48.058;10.632;2023-06-14T07:39:14;94406.56;;;18.67;41.81
56330;BME280;42236;48.058;10.632;2023-06-14T07:42:00;94413.50;;;18.97;41.13
56330;BME280;42236;48.058;10.632;2023-06-14T07:44:46;94406.38;;;19.10;40.78
56330;BME280;42236;48.058;10.632;2023-06-14T07:47:32;94404.81;;;19.09;41.53
56330;BME280;42236;48.058;10.632;2023-06-14T07:50:17;94407.59;;;19.02;41.20
56330;BME280;42236;48.058;10.632;2023-06-14T07:53:03;94399.09;;;18.86;40.97
56330;BME280;42236;48.058;10.632;2023-06-14T07:55:49;94406.50;;;18.92;40.45
56330;BME280;42236;48.058;10.632;2023-06-14T07:58:35;94401.66;;;19.14;40.42
56330;BME280;42236;48.058;10.632;2023-06-14T08:01:21;94399.16;;;19.38;39.56
56330;BME280;42236;48.058;10.632;2023-06-14T08:04:09;94393.06;;;19.65;39.75
56330;BME280;42236;48.058;10.632;2023-06-14T08:06:55;94398.84;;;19.74;39.43
56330;BME280;42236;48.058;10.632;2023-06-14T08:09:41;94402.75;;;19.76;39.72
56330;BME280;42236;48.058;10.632;2023-06-14T08:12:26;94407.75;;;19.89;39.04
56330;BME280;42236;48.058;10.632;2023-06-14T08:15:12;94405.63;;;20.03;38.59
56330;BME280;42236;48.058;10.632;2023-06-14T08:17:58;94415.75;;;20.07;38.71
56330;BME280;42236;48.058;10.632;2023-06-14T08:20:45;94413.41;;;20.09;38.57
56330;BME280;42236;48.058;10.632;2023-06-14T08:23:31;94419.56;;;20.20;38.69
56330;BME280;42236;48.058;10.632;2023-06-14T08:26:17;94414.03;;;20.23;38.48
56330;BME280;42236;48.058;10.632;2023-06-14T08:29:02;94421.91;;;20.18;38.28
56330;BME280;42236;48.058;10.632;2023-06-14T08:31:48;94419.63;;;20.13;37.81
56330;BME280;42236;48.058;10.632;2023-06-14T08:34:33;94418.13;;;20.04;37.64
56330;BME280;42236;48.058;10.632;2023-06-14T08:37:19;94416.53;;;20.07;37.67
56330;BME280;42236;48.058;10.632;2023-06-14T08:40:17;94424.22;;;20.23;37.31
56330;BME280;42236;48.058;10.632;2023-06-14T08:43:04;94416.63;;;20.34;37.00
56330;BME280;42236;48.058;10.632;2023-06-14T08:45:53;94420.81;;;20.46;36.55
56330;BME280;42236;48.058;10.632;2023-06-14T08:48:43;94425.38;;;20.60;36.56
56330;BME280;42236;48.058;10.632;2023-06-14T08:51:30;94420.78;;;20.84;35.79
56330;BME280;42236;48.058;10.632;2023-06-14T08:54:19;94422.56;;;20.67;35.87
56330;BME280;42236;48.058;10.632;2023-06-14T08:57:06;94424.47;;;20.70;34.86
56330;BME280;42236;48.058;10.632;2023-06-14T08:59:53;94421.19;;;20.82;35.46
56330;BME280;42236;48.058;10.632;2023-06-14T09:02:39;94427.69;;;20.96;35.06
56330;BME280;42236;48.058;10.632;2023-06-14T09:05:29;94426.94;;;21.19;34.95
56330;BME280;42236;48.058;10.632;2023-06-14T09:08:14;94426.81;;;21.29;34.17
56330;BME280;42236;48.058;10.632;2023-06-14T09:11:01;94429.09;;;21.35;34.13
56330;BME280;42236;48.058;10.632;2023-06-14T09:13:48;94424.09;;;21.26;34.08
56330;BME280;42236;48.058;10.632;2023-06-14T09:16:34;94418.78;;;21.15;33.97
56330;BME280;42236;48.058;10.632;2023-06-14T09:19:24;94432.53;;;21.12;33.06
56330;BME280;42236;48.058;10.632;2023-06-14T09:22:11;94429.28;;;21.20;32.68
56330;BME280;42236;48.058;10.632;2023-06-14T09:24:57;94430.91;;;21.18;32.00
56330;BME280;42236;48.058;10.632;2023-06-14T09:27:43;94435.25;;;21.15;32.66
56330;BME280;42236;48.058;10.632;2023-06-14T09:30:32;94431.66;;;21.18;32.52
56330;BME280;42236;48.058;10.632;2023-06-14T09:33:17;94430.69;;;21.32;32.53
56330;BME280;42236;48.058;10.632;2023-06-14T09:36:04;94432.25;;;21.60;32.40
56330;BME280;42236;48.058;10.632;2023-06-14T09:39:03;94437.34;;;21.85;30.67
56330;BME280;42236;48.058;10.632;2023-06-14T09:41:52;94437.75;;;21.84;31.62
56330;BME280;42236;48.058;10.632;2023-06-14T09:44:38;94434.31;;;21.80;31.56
56330;BME280;42236;48.058;10.632;2023-06-14T09:47:24;94435.59;;;21.71;31.34
56330;BME280;42236;48.058;10.632;2023-06-14T09:50:10;94429.81;;;21.66;31.67
56330;BME280;42236;48.058;10.632;2023-06-14T09:53:02;94433.22;;;21.73;30.41
56330;BME280;42236;48.058;10.632;2023-06-14T09:55:49;94438.22;;;21.79;30.88
56330;BME280;42236;48.058;10.632;2023-06-14T09:58:37;94433.81;;;21.85;30.53
56330;BME280;42236;48.058;10.632;2023-06-14T10:01:30;94431.06;;;21.85;30.36
56330;BME280;42236;48.058;10.632;2023-06-14T10:04:20;94430.84;;;21.99;30.82
56330;BME280;42236;48.058;10.632;2023-06-14T10:07:07;94431.72;;;22.16;30.27
56330;BME280;42236;48.058;10.632;2023-06-14T10:09:54;94421.38;;;22.24;29.97
56330;BME280;42236;48.058;10.632;2023-06-14T10:12:40;94426.22;;;22.16;29.78
56330;BME280;42236;48.058;10.632;2023-06-14T10:16:07;94422.47;;;22.06;29.28
56330;BME280;42236;48.058;10.632;2023-06-14T10:22:12;94424.59;;;22.19;29.88
56330;BME280;42236;48.058;10.632;2023-06-14T10:25:01;94416.41;;;22.39;30.22
56330;BME280;42236;48.058;10.632;2023-06-14T10:31:13;94420.13;;;22.68;29.32
56330;BME280;42236;48.058;10.632;2023-06-14T10:34:04;94423.72;;;22.65;29.21
56330;BME280;42236;48.058;10.632;2023-06-14T10:37:23;94428.50;;;22.21;27.91
56330;BME280;42236;48.058;10.632;2023-06-14T10:40:29;94424.13;;;22.00;28.72
56330;BME280;42236;48.058;10.632;2023-06-14T10:43:21;94430.91;;;22.15;29.25
56330;BME280;42236;48.058;10.632;2023-06-14T10:46:17;94416.31;;;22.42;28.29
56330;BME280;42236;48.058;10.632;2023-06-14T10:49:03;94422.03;;;22.51;29.24
56330;BME280;42236;48.058;10.632;2023-06-14T10:52:52;94417.94;;;22.79;28.44
56330;BME280;42236;48.058;10.632;2023-06-14T10:56:05;94418.00;;;22.96;29.28
56330;BME280;42236;48.058;10.632;2023-06-14T11:06:14;94412.19;;;22.90;28.87
56330;BME280;42236;48.058;10.632;2023-06-14T11:12:33;94417.22;;;22.75;29.41
56330;BME280;42236;48.058;10.632;2023-06-14T11:15:58;94418.81;;;22.76;28.75
56330;BME280;42236;48.058;10.632;2023-06-14T11:18:46;94420.19;;;22.85;29.33
56330;BME280;42236;48.058;10.632;2023-06-14T11:21:42;94412.56;;;22.92;29.33
56330;BME280;42236;48.058;10.632;2023-06-14T11:25:02;94414.31;;;23.03;28.27
56330;BME280;42236;48.058;10.632;2023-06-14T11:28:55;94409.31;;;22.97;27.97
56330;BME280;42236;48.058;10.632;2023-06-14T11:31:45;94410.66;;;22.89;27.78
56330;BME280;42236;48.058;10.632;2023-06-14T11:38:38;94411.25;;;23.00;28.08
56330;BME280;42236;48.058;10.632;2023-06-14T11:41:41;94412.88;;;22.98;28.42
56330;BME280;42236;48.058;10.632;2023-06-14T11:45:33;94411.38;;;22.93;27.93
56330;BME280;42236;48.058;10.632;2023-06-14T11:48:19;94404.31;;;22.92;28.30
56330;BME280;42236;48.058;10.632;2023-06-14T11:52:07;94411.31;;;22.77;27.89
56330;BME280;42236;48.058;10.632;2023-06-14T11:54:59;94411.03;;;22.91;28.71
56330;BME280;42236;48.058;10.632;2023-06-14T12:00:49;94400.91;;;23.05;28.62
56330;BME280;42236;48.058;10.632;2023-06-14T12:03:35;94405.50;;;23.11;28.11
56330;BME280;42236;48.058;10.632;2023-06-14T12:06:30;94404.47;;;23.05;27.78
56330;BME280;42236;48.058;10.632;2023-06-14T12:09:21;94405.31;;;23.02;27.92
56330;BME280;42236;48.058;10.632;2023-06-14T12:12:12;94403.66;;;23.05;28.27
56330;BME280;42236;48.058;10.632;2023-06-14T12:14:57;94394.00;;;22.96;28.31
56330;BME280;42236;48.058;10.632;2023-06-14T12:17:46;94406.38;;;22.88;27.37
56330;BME280;42236;48.058;10.632;2023-06-14T12:20:32;94395.53;;;22.97;28.03
56330;BME280;42236;48.058;10.632;2023-06-14T12:23:19;94406.53;;;22.97;27.67
56330;BME280;42236;48.058;10.632;2023-06-14T12:26:32;94402.50;;;23.06;27.41
56330;BME280;42236;48.058;10.632;2023-06-14T12:32:34;94403.09;;;23.13;27.70
56330;BME280;42236;48.058;10.632;2023-06-14T12:35:20;94413.09;;;23.24;27.86
56330;BME280;42236;48.058;10.632;2023-06-14T12:38:16;94398.13;;;23.25;27.34
56330;BME280;42236;48.058;10.632;2023-06-14T12:41:03;94406.66;;;23.30;27.82
56330;BME280;42236;48.058;10.632;2023-06-14T12:43:48;94404.25;;;23.32;27.28
56330;BME280;42236;48.058;10.632;2023-06-14T12:46:34;94407.25;;;23.38;27.48
56330;BME280;42236;48.058;10.632;2023-06-14T12:49:25;94407.47;;;23.11;27.92
56330;BME280;42236;48.058;10.632;2023-06-14T12:52:10;94419.00;;;23.06;28.08
56330;BME280;42236;48.058;10.632;2023-06-14T12:54:56;94405.75;;;23.00;27.80
56330;BME280;42236;48.058;10.632;2023-06-14T12:57:45;94415.75;;;23.11;27.87
56330;BME280;42236;48.058;10.632;2023-06-14T13:00:31;94420.31;;;23.17;27.58
56330;BME280;42236;48.058;10.632;2023-06-14T13:03:16;94418.69;;;23.36;28.14
56330;BME280;42236;48.058;10.632;2023-06-14T13:06:03;94415.94;;;23.20;27.89
56330;BME280;42236;48.058;10.632;2023-06-14T13:08:50;94410.53;;;23.33;28.07
56330;BME280;42236;48.058;10.632;2023-06-14T13:11:36;94400.81;;;23.45;27.47
56330;BME280;42236;48.058;10.632;2023-06-14T13:14:22;94411.22;;;23.37;27.88
56330;BME280;42236;48.058;10.632;2023-06-14T13:17:09;94410.44;;;23.36;28.01
56330;BME280;42236;48.058;10.632;2023-06-14T13:19:55;94408.47;;;23.53;27.77
56330;BME280;42236;48.058;10.632;2023-06-14T13:22:41;94411.41;;;23.62;27.59
56330;BME280;42236;48.058;10.632;2023-06-14T13:25:26;94410.09;;;23.51;27.62
56330;BME280;42236;48.058;10.632;2023-06-14T13:28:12;94414.13;;;23.46;27.50
56330;BME280;42236;48.058;10.632;2023-06-14T13:30:58;94409.25;;;23.54;27.88
56330;BME280;42236;48.058;10.632;2023-06-14T13:33:43;94406.50;;;23.54;28.03
56330;BME280;42236;48.058;10.632;2023-06-14T13:39:16;94414.59;;;23.77;27.79
56330;BME280;42236;48.058;10.632;2023-06-14T13:42:01;94415.81;;;23.76;27.80
56330;BME280;42236;48.058;10.632;2023-06-14T13:44:47;94411.56;;;23.55;27.82
56330;BME280;42236;48.058;10.632;2023-06-14T13:47:33;94408.03;;;23.38;28.28
56330;BME280;42236;48.058;10.632;2023-06-14T13:50:19;94406.31;;;23.28;28.20
56330;BME280;42236;48.058;10.632;2023-06-14T13:53:07;94411.44;;;23.26;28.44
56330;BME280;42236;48.058;10.632;2023-06-14T13:55:55;94404.91;;;23.20;28.33
56330;BME280;42236;48.058;10.632;2023-06-14T13:58:41;94402.41;;;23.09;28.53
56330;BME280;42236;48.058;10.632;2023-06-14T14:01:39;94412.38;;;23.19;28.45
56330;BME280;42236;48.058;10.632;2023-06-14T14:04:28;94412.75;;;23.38;28.41
56330;BME280;42236;48.058;10.632;2023-06-14T14:07:14;94411.50;;;23.59;27.82
56330;BME280;42236;48.058;10.632;2023-06-14T14:10:00;94407.34;;;23.67;27.53
56330;BME280;42236;48.058;10.632;2023-06-14T14:12:45;94412.66;;;23.78;27.68
56330;BME280;42236;48.058;10.632;2023-06-14T14:15:31;94405.97;;;23.92;27.88
56330;BME280;42236;48.058;10.632;2023-06-14T14:18:20;94409.00;;;23.97;27.64
56330;BME280;42236;48.058;10.632;2023-06-14T14:21:08;94414.81;;;24.16;27.55
56330;BME280;42236;48.058;10.632;2023-06-14T14:23:55;94410.59;;;24.11;27.30
56330;BME280;42236;48.058;10.632;2023-06-14T14:26:40;94404.78;;;24.09;27.27
56330;BME280;42236;48.058;10.632;2023-06-14T14:29:26;94407.78;;;23.98;27.33
56330;BME280;42236;48.058;10.632;2023-06-14T14:32:14;94405.72;;;24.02;27.42
56330;BME280;42236;48.058;10.632;2023-06-14T14:35:00;94414.66;;;24.06;27.17
56330;BME280;42236;48.058;10.632;2023-06-14T14:37:46;94402.25;;;24.15;27.09
56330;BME280;42236;48.058;10.632;2023-06-14T14:40:31;94410.19;;;24.13;26.91
56330;BME280;42236;48.058;10.632;2023-06-14T14:43:17;94410.28;;;24.09;27.14
56330;BME280;42236;48.058;10.632;2023-06-14T14:46:03;94414.41;;;24.01;26.82
56330;BME280;42236;48.058;10.632;2023-06-14T14:48:49;94411.81;;;24.10;27.11
56330;BME280;42236;48.058;10.632;2023-06-14T14:51:34;94412.63;;;24.23;26.65
56330;BME280;42236;48.058;10.632;2023-06-14T14:54:20;94417.03;;;24.21;26.90
56330;BME280;42236;48.058;10.632;2023-06-14T14:57:06;94415.09;;;24.21;26.83
56330;BME280;42236;48.058;10.632;2023-06-14T14:59:52;94416.09;;;24.27;26.92
56330;BME280;42236;48.058;10.632;2023-06-14T15:02:37;94412.97;;;24.25;26.66
56330;BME280;42236;48.058;10.632;2023-06-14T15:05:23;94412.50;;;24.14;26.68
56330;BME280;42236;48.058;10.632;2023-06-14T15:08:09;94415.78;;;24.09;26.68
56330;BME280;42236;48.058;10.632;2023-06-14T15:10:57;94417.94;;;24.01;26.38
56330;BME280;42236;48.058;10.632;2023-06-14T15:13:43;94417.69;;;24.12;26.33
56330;BME280;42236;48.058;10.632;2023-06-14T15:16:29;94417.50;;;24.19;26.77
56330;BME280;42236;48.058;10.632;2023-06-14T15:19:14;94411.03;;;24.26;26.41